createdAt,value
2022-08-05T00:00:46.717Z,17.10
2022-08-05T00:03:16.770Z,17.04
2022-08-05T00:06:04.978Z,17.03
2022-08-05T00:08:34.900Z,17.04
2022-08-05T00:11:05.187Z,17.04
2022-08-05T00:13:47.321Z,17.05
2022-08-05T00:16:20.066Z,17.05
2022-08-05T00:19:04.209Z,17.08
2022-08-05T00:21:30.832Z,17.01
2022-08-05T00:24:10.691Z,16.95
2022-08-05T00:26:38.447Z,16.96
2022-08-05T00:29:04.880Z,16.94
2022-08-05T00:31:54.420Z,16.91
2022-08-05T00:34:53.307Z,16.85
2022-08-05T00:37:12.847Z,16.89
2022-08-05T00:39:58.573Z,16.85
2022-08-05T00:42:37.525Z,16.83
2022-08-05T00:45:06.619Z,16.74
2022-08-05T00:47:56.434Z,16.67
2022-08-05T00:50:25.061Z,16.65
2022-08-05T00:52:52.132Z,16.67
2022-08-05T00:55:19.797Z,16.62
2022-08-05T00:57:55.338Z,16.62
2022-08-05T01:00:29.354Z,16.55
2022-08-05T01:02:57.008Z,16.43
2022-08-05T01:05:24.063Z,16.34
2022-08-05T01:08:41.291Z,16.36
2022-08-05T01:11:10.014Z,16.39
2022-08-05T01:13:58.658Z,16.33
2022-08-05T01:17:01.224Z,16.34
2022-08-05T01:20:01.292Z,16.34
2022-08-05T01:22:47.066Z,16.32
2022-08-05T01:25:41.648Z,16.29
2022-08-05T01:28:26.184Z,16.28
2022-08-05T01:30:57.062Z,16.23
2022-08-05T01:33:29.473Z,16.29
2022-08-05T01:36:12.889Z,16.24
2022-08-05T01:38:40.793Z,16.24
2022-08-05T01:41:07.939Z,16.26
2022-08-05T01:43:35.628Z,16.26
2022-08-05T01:48:44.793Z,16.20
2022-08-05T01:51:18.136Z,16.09
2022-08-05T01:53:57.663Z,16.06
2022-08-05T01:58:12.870Z,16.09
2022-08-05T01:59:20.159Z,16.11
2022-08-05T02:01:49.559Z,16.14
2022-08-05T02:04:20.121Z,16.08
2022-08-05T02:06:47.694Z,16.03
2022-08-05T02:11:52.186Z,16.00
2022-08-05T02:14:27.548Z,16.00
2022-08-05T02:16:57.789Z,15.95
2022-08-05T02:19:27.768Z,15.99
2022-08-05T02:22:26.710Z,15.96
2022-08-05T02:25:01.747Z,15.81
2022-08-05T02:27:58.018Z,15.84
2022-08-05T02:30:17.746Z,15.80
2022-08-05T02:32:48.029Z,15.73
2022-08-05T02:35:22.140Z,15.71
2022-08-05T02:37:59.115Z,15.71
2022-08-05T02:40:26.908Z,15.69
2022-08-05T02:42:55.416Z,15.72
2022-08-05T02:48:07.305Z,15.68
2022-08-05T02:50:46.924Z,15.76
2022-08-05T02:53:18.939Z,15.74
2022-08-05T02:55:54.652Z,15.75
2022-08-05T02:58:26.697Z,15.71
2022-08-05T03:03:23.384Z,15.65
2022-08-05T03:06:53.761Z,15.65
2022-08-05T03:14:07.903Z,15.51
2022-08-05T03:16:35.814Z,15.45
2022-08-05T03:21:41.299Z,15.49
2022-08-05T03:24:09.361Z,15.46
2022-08-05T03:26:39.759Z,15.36
2022-08-05T03:29:06.238Z,15.28
2022-08-05T03:31:55.693Z,15.24
2022-08-05T03:34:24.345Z,15.12
2022-08-05T03:36:50.957Z,15.16
2022-08-05T03:39:20.156Z,15.10
2022-08-05T03:41:53.966Z,15.05
2022-08-05T03:44:22.984Z,15.01
2022-08-05T03:49:15.924Z,15.00
2022-08-05T03:52:38.609Z,15.03
2022-08-05T03:55:52.348Z,15.11
2022-08-05T03:57:44.356Z,15.09
2022-08-05T04:02:57.832Z,15.11
2022-08-05T04:05:33.696Z,14.97
2022-08-05T04:08:30.271Z,14.86
2022-08-05T04:10:53.868Z,14.86
2022-08-05T04:13:21.725Z,14.85
2022-08-05T04:15:52.642Z,14.85
2022-08-05T04:18:30.123Z,14.85
2022-08-05T04:20:57.663Z,14.79
2022-08-05T04:26:13.627Z,14.86
2022-08-05T04:28:40.099Z,14.91
2022-08-05T04:31:18.881Z,14.88
2022-08-05T04:34:18.480Z,14.93
2022-08-05T04:36:45.510Z,14.95
2022-08-05T04:41:42.416Z,14.94
2022-08-05T04:44:10.737Z,14.93
2022-08-05T04:46:38.275Z,14.98
2022-08-05T04:49:05.960Z,14.98
2022-08-05T04:51:38.824Z,14.97
2022-08-05T04:54:05.357Z,15.04
2022-08-05T04:56:36.757Z,14.99
2022-08-05T04:59:21.426Z,14.99
2022-08-05T05:02:07.035Z,15.05
2022-08-05T05:04:38.249Z,15.07
2022-08-05T05:07:04.942Z,15.05
2022-08-05T05:09:37.407Z,15.08
2022-08-05T05:12:05.009Z,15.06
2022-08-05T05:14:32.747Z,15.05
2022-08-05T05:17:00.276Z,15.05
2022-08-05T05:19:36.623Z,15.03
2022-08-05T05:22:24.576Z,14.97
2022-08-05T05:24:58.937Z,15.02
2022-08-05T05:30:29.292Z,14.96
2022-08-05T05:33:00.986Z,14.97
2022-08-05T05:35:37.937Z,14.92
2022-08-05T05:38:13.121Z,14.97
2022-08-05T05:40:48.369Z,14.97
2022-08-05T05:43:22.243Z,15.00
2022-08-05T05:46:05.119Z,15.02
2022-08-05T05:48:32.204Z,15.02
2022-08-05T05:53:54.550Z,15.01
2022-08-05T05:59:03.292Z,14.98
2022-08-05T06:01:38.091Z,14.99
2022-08-05T06:04:11.384Z,15.01
2022-08-05T06:06:41.756Z,15.01
2022-08-05T06:09:09.053Z,15.00
2022-08-05T06:11:59.316Z,15.03
2022-08-05T06:19:26.031Z,15.02
2022-08-05T06:22:02.279Z,15.03
2022-08-05T06:24:28.647Z,14.99
2022-08-05T06:26:55.489Z,14.87
2022-08-05T06:29:25.185Z,14.83
2022-08-05T06:32:21.408Z,14.84
2022-08-05T06:34:56.373Z,14.75
2022-08-05T06:37:52.261Z,14.64
2022-08-05T06:40:11.857Z,14.65
2022-08-05T06:42:39.728Z,14.57
2022-08-05T06:45:08.941Z,14.53
2022-08-05T06:48:47.134Z,14.50
2022-08-05T06:50:23.065Z,14.40
2022-08-05T06:52:58.696Z,14.38
2022-08-05T06:55:30.116Z,14.35
2022-08-05T07:03:13.839Z,14.36
2022-08-05T07:05:43.335Z,14.38
2022-08-05T07:08:10.616Z,14.39
2022-08-05T07:10:37.949Z,14.28
2022-08-05T07:13:57.211Z,14.30
2022-08-05T07:22:00.585Z,14.28
2022-08-05T07:26:56.358Z,14.28
2022-08-05T07:32:09.017Z,14.25
2022-08-05T07:34:40.461Z,14.24
2022-08-05T07:37:11.490Z,14.22
2022-08-05T07:40:04.400Z,14.18
2022-08-05T07:42:33.608Z,14.23
2022-08-05T07:45:00.728Z,14.19
2022-08-05T07:47:27.110Z,14.18
2022-08-05T07:50:09.583Z,14.17
2022-08-05T07:52:40.665Z,14.18
2022-08-05T07:55:43.939Z,14.12
2022-08-05T07:57:57.509Z,14.08
2022-08-05T08:00:29.079Z,14.13
2022-08-05T08:03:15.088Z,14.01
2022-08-05T08:05:49.334Z,14.05
2022-08-05T08:08:16.550Z,14.02
2022-08-05T08:10:49.053Z,13.97
2022-08-05T08:13:15.839Z,13.98
2022-08-05T08:16:34.532Z,13.95
2022-08-05T08:18:35.134Z,13.94
2022-08-05T08:21:09.799Z,14.00
2022-08-05T08:24:01.502Z,14.07
2022-08-05T08:28:59.753Z,14.02
2022-08-05T08:36:50.162Z,13.96
2022-08-05T08:39:19.510Z,13.95
2022-08-05T08:41:52.612Z,13.95
2022-08-05T08:45:17.855Z,13.96
2022-08-05T08:48:07.079Z,14.01
2022-08-05T08:50:31.580Z,13.99
2022-08-05T08:53:07.926Z,13.99
2022-08-05T08:56:04.692Z,14.01
2022-08-05T08:58:43.897Z,14.05
2022-08-05T09:01:16.263Z,14.02
2022-08-05T09:03:46.239Z,14.03
2022-08-05T09:06:17.134Z,14.02
2022-08-05T09:08:46.795Z,14.04
2022-08-05T09:11:14.783Z,14.07
2022-08-05T09:14:01.068Z,14.11
2022-08-05T09:16:29.285Z,14.15
2022-08-05T09:18:55.761Z,14.18
2022-08-05T09:24:14.659Z,14.23
2022-08-05T09:26:46.062Z,14.24
2022-08-05T09:29:17.583Z,14.23
2022-08-05T09:32:51.273Z,14.25
2022-08-05T09:38:12.632Z,14.33
2022-08-05T09:40:29.566Z,14.38
2022-08-05T09:42:56.086Z,14.37
2022-08-05T09:46:06.696Z,14.37
2022-08-05T09:48:31.481Z,14.39
2022-08-05T09:53:54.704Z,14.32
2022-08-05T09:56:14.420Z,14.38
2022-08-05T09:58:42.398Z,14.37
2022-08-05T10:01:14.616Z,14.42
2022-08-05T10:03:58.701Z,14.42
2022-08-05T10:06:27.595Z,14.49
2022-08-05T10:08:55.667Z,14.50
2022-08-05T10:11:22.976Z,14.48
2022-08-05T10:13:49.798Z,14.54
2022-08-05T10:16:42.080Z,14.58
2022-08-05T10:21:59.058Z,14.62
2022-08-05T10:24:27.169Z,14.73
2022-08-05T10:30:06.951Z,14.89
2022-08-05T10:35:02.976Z,14.99
2022-08-05T10:42:50.597Z,15.13
2022-08-05T10:45:40.509Z,15.19
2022-08-05T10:48:57.105Z,15.24
2022-08-05T10:51:29.107Z,15.27
2022-08-05T10:54:02.045Z,15.47
2022-08-05T10:56:45.678Z,15.49
2022-08-05T11:00:03.770Z,15.53
2022-08-05T11:02:14.463Z,15.68
2022-08-05T11:04:58.054Z,15.81
2022-08-05T11:07:33.327Z,15.95
2022-08-05T11:10:22.107Z,15.98
2022-08-05T11:15:59.210Z,16.18
2022-08-05T11:24:03.405Z,16.29
2022-08-05T11:26:32.960Z,16.39
2022-08-05T11:29:12.890Z,16.44
2022-08-05T11:31:56.361Z,16.49
2022-08-05T11:34:51.638Z,16.53
2022-08-05T11:38:26.653Z,16.50
2022-08-05T11:44:04.602Z,16.51
2022-08-05T11:46:16.045Z,16.60
2022-08-05T11:48:55.649Z,16.75
2022-08-05T11:51:43.754Z,16.78
2022-08-05T11:54:15.507Z,16.92
2022-08-05T11:59:22.853Z,16.99
2022-08-05T12:04:19.478Z,17.19
2022-08-05T12:06:49.142Z,17.33
2022-08-05T12:12:06.547Z,17.59
2022-08-05T12:14:43.373Z,17.48
2022-08-05T12:20:25.726Z,17.44
2022-08-05T12:25:18.302Z,17.33
2022-08-05T12:27:53.140Z,17.26
2022-08-05T12:30:22.294Z,17.27
2022-08-05T12:32:58.561Z,17.26
2022-08-05T12:38:07.110Z,17.28
2022-08-05T12:43:06.795Z,17.17
2022-08-05T12:48:26.959Z,17.08
2022-08-05T12:54:23.365Z,17.07
2022-08-05T12:56:58.841Z,17.06
2022-08-05T13:02:21.821Z,17.12
2022-08-05T13:04:55.031Z,17.21
2022-08-05T13:07:47.839Z,17.37
2022-08-05T13:10:19.584Z,17.47
2022-08-05T13:15:41.494Z,17.61
2022-08-05T13:18:19.696Z,17.87
2022-08-05T13:20:46.485Z,18.11
2022-08-05T13:30:53.294Z,18.16
2022-08-05T13:34:20.955Z,18.11
2022-08-05T13:36:09.133Z,17.94
2022-08-05T13:41:05.897Z,17.76
2022-08-05T13:43:44.366Z,17.81
2022-08-05T13:48:57.193Z,17.80
2022-08-05T13:56:24.714Z,17.82
2022-08-05T13:58:52.828Z,17.95
2022-08-05T14:01:25.844Z,17.98
2022-08-05T14:06:47.938Z,17.93
2022-08-05T14:14:42.510Z,17.91
2022-08-05T14:32:27.253Z,18.59
2022-08-05T14:34:56.687Z,18.64
2022-08-05T14:37:45.367Z,18.66
2022-08-05T14:40:13.975Z,18.68
2022-08-05T14:42:43.037Z,18.74
2022-08-05T14:52:56.765Z,19.43
2022-08-05T14:58:11.848Z,19.82
2022-08-05T15:00:59.717Z,20.01
2022-08-05T15:03:33.518Z,20.01
2022-08-05T15:11:52.656Z,19.63
2022-08-05T15:17:01.253Z,19.57
2022-08-05T15:19:27.786Z,19.65
2022-08-05T15:21:54.327Z,19.75
2022-08-05T15:24:26.857Z,19.81
2022-08-05T15:26:53.264Z,19.79
2022-08-05T15:31:52.887Z,20.00
2022-08-05T15:34:33.141Z,20.14
2022-08-05T15:37:06.076Z,20.32
2022-08-05T15:42:49.927Z,20.11
2022-08-05T15:45:06.866Z,19.90
2022-08-05T15:47:36.147Z,19.88
2022-08-05T15:50:03.345Z,20.02
2022-08-05T15:52:53.586Z,20.04
2022-08-05T15:57:50.849Z,20.18
2022-08-05T16:03:04.627Z,20.00
2022-08-05T16:05:32.089Z,19.98
2022-08-05T16:07:58.777Z,19.88
2022-08-05T16:12:55.970Z,19.50
2022-08-05T16:15:23.170Z,19.41
2022-08-05T16:20:25.522Z,19.23
2022-08-05T16:22:51.925Z,19.23
2022-08-05T16:25:18.490Z,19.29
2022-08-05T16:33:00.046Z,19.40
2022-08-05T16:35:32.471Z,19.63
2022-08-05T16:38:16.174Z,19.50
2022-08-05T16:40:47.691Z,19.30
2022-08-05T16:43:18.729Z,19.27
2022-08-05T16:46:03.762Z,19.40
2022-08-05T16:48:33.479Z,19.44
2022-08-05T16:53:32.123Z,19.37
2022-08-05T16:56:14.752Z,19.34
2022-08-05T16:58:41.353Z,19.26
2022-08-05T17:01:10.403Z,19.15
2022-08-05T17:03:37.288Z,19.07
2022-08-05T17:08:51.753Z,18.67
2022-08-05T17:13:45.907Z,18.69
2022-08-05T17:16:32.764Z,18.60
2022-08-05T17:18:59.827Z,18.58
2022-08-05T17:21:26.241Z,18.38
2022-08-05T17:26:49.651Z,18.39
2022-08-05T17:34:29.927Z,18.45
2022-08-05T17:36:58.477Z,18.38
2022-08-05T17:39:33.515Z,18.19
2022-08-05T17:42:19.658Z,18.12
2022-08-05T17:44:50.403Z,18.07
2022-08-05T17:47:22.122Z,18.10
2022-08-05T17:50:03.504Z,18.07
2022-08-05T17:52:32.087Z,17.87
2022-08-05T17:54:58.834Z,17.74
2022-08-05T17:57:25.302Z,17.68
2022-08-05T18:02:32.827Z,17.62
2022-08-05T18:05:02.740Z,17.57
2022-08-05T18:10:09.927Z,17.46
2022-08-05T18:12:37.031Z,17.38
2022-08-05T18:15:04.750Z,17.33
2022-08-05T18:20:19.366Z,17.24
2022-08-05T18:22:57.251Z,17.12
2022-08-05T18:25:25.152Z,17.04
2022-08-05T18:27:59.019Z,17.00
2022-08-05T18:30:32.167Z,16.94
2022-08-05T18:33:00.325Z,16.92
2022-08-05T18:36:00.609Z,16.86
2022-08-05T18:38:16.416Z,16.89
2022-08-05T18:43:38.380Z,16.86
2022-08-05T18:46:09.955Z,16.81
2022-08-05T18:54:13.270Z,16.70
2022-08-05T18:56:40.284Z,16.65
2022-08-05T18:59:41.940Z,16.63
2022-08-05T19:01:56.994Z,16.62
2022-08-05T19:06:51.874Z,16.58
2022-08-05T19:09:20.535Z,16.54
2022-08-05T19:12:00.327Z,16.38
2022-08-05T19:14:44.944Z,16.39
2022-08-05T19:17:15.488Z,16.38
2022-08-05T19:19:46.896Z,16.23
2022-08-05T19:24:54.593Z,16.11
2022-08-05T19:29:49.929Z,16.17
2022-08-05T19:32:16.394Z,16.08
2022-08-05T19:34:54.938Z,16.06
2022-08-05T19:40:01.882Z,15.91
2022-08-05T19:42:35.574Z,15.90
2022-08-05T19:45:05.766Z,15.86
2022-08-05T19:47:34.004Z,15.76
2022-08-05T19:50:00.910Z,15.74
2022-08-05T19:52:31.377Z,15.68
2022-08-05T19:57:48.973Z,15.58
2022-08-05T20:00:20.742Z,15.51
2022-08-05T20:02:47.395Z,15.41
2022-08-05T20:05:16.544Z,15.43
2022-08-05T20:07:53.876Z,15.36
2022-08-05T20:10:24.984Z,15.30
2022-08-05T20:18:10.288Z,15.18
2022-08-05T20:20:55.119Z,15.15
2022-08-05T20:23:22.847Z,15.08
2022-08-05T20:25:49.379Z,15.09
2022-08-05T20:30:45.258Z,14.92
2022-08-05T20:33:14.279Z,14.91
2022-08-05T20:35:45.630Z,14.89
2022-08-05T20:40:53.204Z,14.81
2022-08-05T20:43:57.717Z,14.77
2022-08-05T20:46:10.057Z,14.78
2022-08-05T20:48:38.958Z,14.80
2022-08-05T20:51:08.725Z,14.77
2022-08-05T20:53:40.791Z,14.67
2022-08-05T20:56:09.735Z,14.51
2022-08-05T20:58:36.988Z,14.50
2022-08-05T21:01:04.492Z,14.46
2022-08-05T21:03:34.724Z,14.40
2022-08-05T21:06:01.774Z,14.42
2022-08-05T21:11:12.766Z,14.34
2022-08-05T21:13:55.544Z,14.31
2022-08-05T21:19:00.926Z,14.19
2022-08-05T21:26:53.557Z,14.12
2022-08-05T21:31:58.741Z,14.05
2022-08-05T21:34:25.142Z,14.01
2022-08-05T21:36:51.612Z,14.04
2022-08-05T21:39:26.611Z,13.95
2022-08-05T21:42:01.984Z,13.88
2022-08-05T21:44:30.122Z,13.90
2022-08-05T21:46:58.223Z,13.86
2022-08-05T21:49:58.604Z,13.90
2022-08-05T21:57:31.276Z,13.68
2022-08-05T22:00:10.691Z,13.62
2022-08-05T22:02:41.699Z,13.58
2022-08-05T22:05:10.054Z,13.53
2022-08-05T22:07:54.233Z,13.45
2022-08-05T22:10:26.787Z,13.41
2022-08-05T22:12:59.029Z,13.38
2022-08-05T22:16:01.367Z,13.36
2022-08-05T22:18:22.963Z,13.28
2022-08-05T22:20:52.610Z,13.23
2022-08-05T22:29:17.336Z,13.15
2022-08-05T22:31:45.300Z,13.16
2022-08-05T22:36:52.275Z,13.17
2022-08-05T22:39:21.379Z,13.12
2022-08-05T22:42:09.646Z,13.09
2022-08-05T22:44:34.555Z,13.08
2022-08-05T22:47:00.970Z,13.09
2022-08-05T22:50:20.557Z,13.04
2022-08-05T22:52:22.774Z,13.03
2022-08-05T22:57:23.419Z,12.98
2022-08-05T22:59:53.840Z,12.95
2022-08-05T23:02:29.183Z,12.90
2022-08-05T23:04:57.806Z,12.86
2022-08-05T23:07:28.901Z,12.82
2022-08-05T23:10:01.192Z,12.78
2022-08-05T23:15:03.416Z,12.79
2022-08-05T23:17:34.284Z,12.76
2022-08-05T23:20:15.497Z,12.77
2022-08-05T23:22:47.518Z,12.72
2022-08-05T23:25:50.337Z,12.71
2022-08-05T23:28:01.536Z,12.72
2022-08-05T23:30:29.235Z,12.63
2022-08-05T23:32:58.023Z,12.59
2022-08-05T23:35:28.509Z,12.59
2022-08-05T23:38:00.865Z,12.51
2022-08-05T23:42:54.074Z,12.40
2022-08-05T23:45:20.821Z,12.36
2022-08-05T23:47:50.355Z,12.32
2022-08-05T23:50:20.508Z,12.28
2022-08-05T23:52:49.758Z,12.22
2022-08-05T23:55:17.815Z,12.16
2022-08-05T23:57:44.205Z,12.11
